Time;durP1;ratioP1;P1;durP2;ratioP2;P2;SDS_P1;SDS_P2;PMS_P1;PMS_P2;Temp;Humidity;BMP_temperature;BMP_pressure;BME280_temperature;BME280_humidity;BME280_pressure;Samples;Min_cycle;Max_cycle;Signal;HPM_P1;HPM_P2
2021/03/24 00:03:15;;;;;;;43.87;34.77;;;;;;;8.36;61.62;102225.66;6200985;28;20591;-56
2021/03/24 00:06:35;;;;;;;46.27;37.07;;;;;;;8.30;61.58;102209.97;6196530;28;20559;-53
2021/03/24 00:09:57;;;;;;;47.70;34.53;;;;;;;8.20;62.27;102207.97;6192137;28;22011;-55
2021/03/24 00:13:18;;;;;;;45.80;38.77;;;;;;;8.24;61.71;102209.81;6186226;28;20633;-51
2021/03/24 00:16:38;;;;;;;43.30;36.63;;;;;;;8.55;60.50;102210.50;6190049;28;20257;-52
2021/03/24 00:19:58;;;;;;;44.73;37.13;;;;;;;8.63;60.37;102214.16;6189897;28;22190;-52
2021/03/24 00:23:18;;;;;;;46.23;36.37;;;;;;;8.40;61.04;102211.91;6197044;28;20252;-54
2021/03/24 00:26:40;;;;;;;46.87;37.30;;;;;;;8.70;59.98;102221.22;6196112;28;20229;-49
2021/03/24 00:30:01;;;;;;;47.87;37.53;;;;;;;8.46;60.22;102217.25;6189610;28;20222;-54
2021/03/24 00:33:23;;;;;;;48.83;37.03;;;;;;;8.56;59.92;102230.44;6187828;28;20547;-50
2021/03/24 00:36:43;;;;;;;41.03;34.30;;;;;;;8.56;59.83;102220.94;6197995;28;20221;-55
2021/03/24 00:40:06;;;;;;;51.53;40.73;;;;;;;8.42;59.84;102220.63;6196975;28;20233;-53
2021/03/24 00:43:28;;;;;;;42.33;34.27;;;;;;;8.21;60.54;102214.94;6179938;28;20237;-53
2021/03/24 00:46:49;;;;;;;49.07;38.97;;;;;;;8.39;59.74;102212.72;6195933;28;20904;-53
2021/03/24 00:50:13;;;;;;;48.53;37.20;;;;;;;8.25;60.71;102212.44;6196984;28;20615;-55
2021/03/24 00:53:34;;;;;;;48.27;38.80;;;;;;;8.39;59.95;102207.53;6190591;28;20230;-53
2021/03/24 00:56:55;;;;;;;45.43;36.77;;;;;;;8.36;60.08;102199.69;6198042;28;20409;-54
2021/03/24 01:00:20;;;;;;;46.47;37.13;;;;;;;8.38;60.21;102199.75;6194170;28;20236;-53
2021/03/24 01:03:40;;;;;;;47.77;39.10;;;;;;;8.55;59.63;102201.03;6191689;28;20253;-54
2021/03/24 01:07:01;;;;;;;44.97;37.13;;;;;;;8.05;60.96;102201.59;6193684;28;20241;-52
2021/03/24 01:10:25;;;;;;;45.50;38.40;;;;;;;8.16;60.79;102196.66;6187948;28;20615;-57
2021/03/24 01:13:46;;;;;;;45.87;35.97;;;;;;;8.52;59.98;102203.53;6191251;28;20233;-56
2021/03/24 01:17:07;;;;;;;49.13;39.07;;;;;;;8.27;60.53;102196.91;6188169;28;20229;-54
2021/03/24 01:20:31;;;;;;;48.30;38.97;;;;;;;8.51;59.87;102195.72;6192528;28;20409;-55
2021/03/24 01:23:51;;;;;;;49.67;37.43;;;;;;;8.20;60.79;102198.50;6198726;28;20225;-57
2021/03/24 01:27:12;;;;;;;49.50;39.03;;;;;;;8.55;60.10;102194.94;6193348;28;20241;-54
2021/03/24 01:30:34;;;;;;;46.73;38.40;;;;;;;8.35;60.64;102197.94;6196478;28;20237;-56
2021/03/24 01:33:56;;;;;;;47.77;37.67;;;;;;;8.62;59.43;102199.41;6202000;28;20241;-56
2021/03/24 01:37:17;;;;;;;47.80;40.27;;;;;;;8.18;61.36;102199.28;6200241;28;20232;-53
2021/03/24 01:40:40;;;;;;;48.77;39.20;;;;;;;8.46;60.66;102198.22;6195632;28;20237;-57
2021/03/24 01:44:01;;;;;;;50.60;40.57;;;;;;;8.00;62.01;102195.41;6190100;28;20229;-54
2021/03/24 01:47:21;;;;;;;48.77;42.63;;;;;;;8.00;62.22;102189.34;6186477;28;20523;-55
2021/03/24 01:50:44;;;;;;;56.70;45.47;;;;;;;8.06;62.19;102190.38;6191503;28;20292;-55
2021/03/24 01:54:08;;;;;;;56.23;42.30;;;;;;;8.58;60.40;102184.63;6199427;28;20233;-58
2021/03/24 01:57:29;;;;;;;53.13;42.23;;;;;;;8.35;60.93;102182.34;6198201;28;20247;-56
2021/03/24 02:00:51;;;;;;;52.03;40.00;;;;;;;8.62;60.53;102182.09;6200717;28;20233;-55
2021/03/24 02:04:12;;;;;;;49.80;41.57;;;;;;;8.57;60.41;102177.66;6200133;28;20229;-51
2021/03/24 02:07:41;;;;;;;57.50;42.67;;;;;;;8.39;61.23;102181.56;6193830;28;20242;-54
2021/03/24 02:11:09;;;;;;;52.10;40.37;;;;;;;8.48;60.59;102179.22;6194786;28;20229;-53
2021/03/24 02:14:34;;;;;;;50.40;39.27;;;;;;;8.55;60.39;102175.06;6195126;28;20670;-54
2021/03/24 02:17:57;;;;;;;53.60;43.33;;;;;;;8.20;61.31;102182.03;6193634;28;20308;-57
2021/03/24 02:21:22;;;;;;;55.47;42.40;;;;;;;8.24;61.75;102179.53;6197625;28;20225;-55
2021/03/24 02:24:58;;;;;;;48.90;40.47;;;;;;;8.20;61.54;102182.03;6193179;28;20233;-52
2021/03/24 02:28:21;;;;;;;54.20;41.03;;;;;;;8.20;61.97;102182.03;6192998;28;20320;-55
2021/03/24 02:31:42;;;;;;;55.00;44.50;;;;;;;8.16;61.98;102170.72;6198079;28;20241;-51
2021/03/24 02:35:08;;;;;;;55.47;43.73;;;;;;;8.38;61.26;102181.56;6193473;28;20225;-57
2021/03/24 02:38:32;;;;;;;55.87;44.60;;;;;;;8.29;61.59;102169.25;6195128;28;21897;-56
2021/03/24 02:41:55;;;;;;;58.73;46.57;;;;;;;8.13;61.92;102164.56;6197335;28;20233;-56
2021/03/24 02:45:21;;;;;;;54.20;44.63;;;;;;;8.21;61.49;102174.28;6197463;28;20229;-55
2021/03/24 02:48:43;;;;;;;55.17;43.50;;;;;;;8.13;61.81;102174.97;6197081;28;20602;-57
2021/03/24 02:52:04;;;;;;;52.30;42.17;;;;;;;8.37;61.20;102167.69;6195967;28;20230;-51
2021/03/24 02:55:27;;;;;;;52.20;41.80;;;;;;;8.19;61.06;102169.91;6186768;28;20264;-52
2021/03/24 02:58:50;;;;;;;49.23;41.43;;;;;;;8.43;60.37;102154.00;6193114;28;20499;-57
2021/03/24 03:02:15;;;;;;;50.73;41.87;;;;;;;7.78;62.25;102156.84;6201224;28;20307;-57
2021/03/24 03:05:37;;;;;;;57.00;41.57;;;;;;;8.32;60.57;102158.06;6197008;28;20689;-53
2021/03/24 03:09:02;;;;;;;51.77;42.73;;;;;;;8.16;61.08;102159.44;6198777;28;20233;-54
2021/03/24 03:12:32;;;;;;;55.40;43.80;;;;;;;8.05;61.49;102161.81;6197057;28;20225;-54
2021/03/24 03:16:00;;;;;;;58.57;45.53;;;;;;;8.27;60.90;102152.78;6196219;28;20498;-57
2021/03/24 03:19:25;;;;;;;58.07;44.13;;;;;;;7.82;62.40;102158.69;6192062;28;20237;-55
2021/03/24 03:22:52;;;;;;;54.73;44.00;;;;;;;8.21;61.46;102157.84;6200803;28;20225;-54
2021/03/24 03:26:16;;;;;;;57.73;45.77;;;;;;;8.04;62.07;102152.25;6199274;28;20228;-56
2021/03/24 03:29:37;;;;;;;61.03;48.13;;;;;;;8.21;61.37;102156.09;6195971;28;20237;-57
2021/03/24 03:33:01;;;;;;;58.77;46.97;;;;;;;8.30;60.98;102152.84;6194552;28;20241;-54
2021/03/24 03:36:25;;;;;;;58.37;44.10;;;;;;;8.15;60.72;102157.69;6194088;28;20229;-55
2021/03/24 03:39:47;;;;;;;55.40;42.47;;;;;;;8.03;61.13;102156.56;6191512;28;20316;-52
2021/03/24 03:43:11;;;;;;;50.40;42.73;;;;;;;8.11;60.78;102146.38;6178960;28;20245;-54
2021/03/24 03:46:35;;;;;;;49.60;40.70;;;;;;;7.94;61.39;102158.94;6192291;28;20221;-54
2021/03/24 03:49:56;;;;;;;48.20;40.87;;;;;;;7.93;61.61;102152.03;6186736;28;20616;-55
2021/03/24 03:53:23;;;;;;;58.07;43.90;;;;;;;8.22;60.80;102144.00;6180954;28;20233;-56
2021/03/24 03:56:50;;;;;;;54.30;42.63;;;;;;;8.73;59.36;102143.38;6190878;28;20338;-54
2021/03/24 04:00:16;;;;;;;52.10;42.63;;;;;;;8.45;59.65;102150.63;6182361;28;20258;-55
2021/03/24 04:03:45;;;;;;;54.60;43.10;;;;;;;8.83;59.01;102147.91;6190515;28;20708;-53
2021/03/24 04:07:09;;;;;;;53.50;42.67;;;;;;;8.39;60.28;102146.97;6195682;28;20225;-54
2021/03/24 04:10:34;;;;;;;58.03;44.87;;;;;;;8.62;59.19;102150.06;6192775;28;20748;-54
2021/03/24 04:13:57;;;;;;;54.83;42.63;;;;;;;8.57;59.31;102151.69;6192417;28;21985;-55
2021/03/24 04:17:24;;;;;;;52.27;40.90;;;;;;;8.54;59.62;102155.09;6183097;28;20264;-57
2021/03/24 04:20:46;;;;;;;51.87;42.10;;;;;;;8.74;59.28;102154.63;6193676;28;20360;-55
2021/03/24 04:24:12;;;;;;;54.80;40.97;;;;;;;9.08;58.27;102156.16;6198850;28;21035;-57
2021/03/24 04:27:36;;;;;;;50.40;40.43;;;;;;;8.98;58.73;102151.66;6195672;28;20245;-54
2021/03/24 04:31:02;;;;;;;54.17;42.37;;;;;;;8.96;58.33;102151.63;6193888;28;20237;-51
2021/03/24 04:34:23;;;;;;;56.97;45.53;;;;;;;8.54;59.52;102162.91;6194914;28;20458;-50
2021/03/24 04:37:46;;;;;;;53.10;41.93;;;;;;;9.02;58.07;102156.94;6198599;28;20838;-55
2021/03/24 04:41:11;;;;;;;55.03;45.03;;;;;;;8.74;59.28;102165.88;6200954;28;20674;-53
2021/03/24 04:44:35;;;;;;;52.53;44.37;;;;;;;9.02;58.33;102166.44;6189950;28;20252;-55
2021/03/24 04:47:59;;;;;;;58.90;43.80;;;;;;;9.08;58.57;102166.56;6191789;28;20749;-55
2021/03/24 04:51:23;;;;;;;54.43;43.90;;;;;;;9.33;57.65;102160.09;6192806;28;20686;-54
2021/03/24 04:54:45;;;;;;;63.53;47.00;;;;;;;8.76;59.26;102169.44;6193317;28;20233;-55
2021/03/24 04:58:07;;;;;;;53.73;41.87;;;;;;;8.97;58.68;102163.75;6189650;28;20300;-56
2021/03/24 05:01:36;;;;;;;63.10;46.83;;;;;;;8.99;58.36;102161.19;6189979;28;20233;-53
2021/03/24 05:05:01;;;;;;;56.83;43.33;;;;;;;8.00;62.06;102166.88;6197671;28;20237;-53
2021/03/24 05:08:30;;;;;;;58.00;45.47;;;;;;;8.43;60.58;102160.09;6197944;28;20348;-54
2021/03/24 05:12:00;;;;;;;60.73;46.87;;;;;;;8.48;60.51;102161.03;6197517;28;20401;-54
2021/03/24 05:15:23;;;;;;;69.17;48.13;;;;;;;8.18;61.33;102163.84;6196357;28;20630;-59
2021/03/24 05:18:51;;;;;;;58.40;45.37;;;;;;;8.63;60.33;102163.09;6198747;28;20581;-54
2021/03/24 05:22:27;;;;;;;63.70;48.70;;;;;;;8.63;60.36;102159.63;6201674;28;20229;-52
2021/03/24 05:26:02;;;;;;;68.47;48.53;;;;;;;8.36;61.04;102165.97;6188303;28;20240;-57
2021/03/24 05:29:27;;;;;;;59.60;47.17;;;;;;;8.46;60.74;102164.47;6210953;28;20232;-53
2021/03/24 05:32:53;;;;;;;65.57;47.43;;;;;;;8.06;62.29;102167.03;6198693;28;20323;-50
2021/03/24 05:36:19;;;;;;;63.07;47.47;;;;;;;8.03;62.47;102166.97;6194351;28;20229;-54
2021/03/24 05:39:42;;;;;;;63.03;51.07;;;;;;;7.88;62.70;102171.78;6194038;28;20324;-56
2021/03/24 05:43:13;;;;;;;66.33;48.57;;;;;;;8.07;62.15;102175.69;6195869;28;20246;-53
2021/03/24 05:46:52;;;;;;;60.77;47.00;;;;;;;7.88;62.91;102179.56;6196984;28;20225;-55
2021/03/24 05:50:29;;;;;;;60.83;47.93;;;;;;;7.64;64.02;102172.94;6195950;28;20308;-55
2021/03/24 05:54:08;;;;;;;65.93;51.23;;;;;;;8.29;61.91;102177.03;6192997;28;20230;-57
2021/03/24 05:57:40;;;;;;;61.17;47.50;;;;;;;7.87;63.26;102172.63;6193717;28;20229;-54
2021/03/24 06:01:06;;;;;;;62.80;49.60;;;;;;;8.08;62.89;102178.31;6197233;28;20246;-56
2021/03/24 06:04:33;;;;;;;62.13;47.90;;;;;;;7.97;62.97;102179.78;6195633;28;20364;-57
2021/03/24 06:08:18;;;;;;;63.80;48.80;;;;;;;7.57;64.70;102168.44;6196985;28;20253;-56
2021/03/24 06:12:05;;;;;;;66.80;47.77;;;;;;;7.83;63.76;102175.97;6195328;28;20613;-55
2021/03/24 06:15:42;;;;;;;64.73;49.83;;;;;;;7.45;64.45;102162.97;6203892;28;20237;-55
2021/03/24 06:19:17;;;;;;;61.57;45.27;;;;;;;7.62;64.12;102169.44;6198217;28;20450;-55
2021/03/24 06:22:50;;;;;;;59.03;46.03;;;;;;;8.35;61.70;102164.19;6211360;28;20241;-55
2021/03/24 06:26:27;;;;;;;55.13;45.37;;;;;;;8.46;61.07;102170.53;6188554;28;20237;-56
2021/03/24 06:30:31;;;;;;;55.57;43.37;;;;;;;8.62;60.32;102168.25;6193329;28;20221;-52
2021/03/24 06:34:21;;;;;;;58.27;44.30;;;;;;;8.47;60.83;102161.00;6195545;28;20230;-55
2021/03/24 06:38:00;;;;;;;54.17;41.87;;;;;;;8.55;60.23;102171.56;6201082;28;20747;-58
2021/03/24 06:41:43;;;;;;;57.63;42.43;;;;;;;8.65;59.56;102183.91;6192876;28;20224;-58
2021/03/24 06:45:42;;;;;;;53.97;41.87;;;;;;;8.73;59.98;102178.88;6181040;28;20233;-58
2021/03/24 06:49:23;;;;;;;63.53;43.30;;;;;;;9.10;59.50;102170.06;6182964;28;20233;-59
2021/03/24 06:53:06;;;;;;;57.57;42.20;;;;;;;8.50;62.13;102175.78;6191550;28;20242;-54
2021/03/24 06:56:59;;;;;;;56.87;42.17;;;;;;;8.65;61.57;102160.53;6201260;28;20234;-58
2021/03/24 07:00:57;;;;;;;58.10;43.80;;;;;;;8.56;61.34;102169.00;6205186;28;20299;-56
2021/03/24 07:04:40;;;;;;;61.93;43.90;;;;;;;8.93;60.27;102168.88;6195032;28;20232;-57
2021/03/24 07:08:24;;;;;;;55.17;43.90;;;;;;;9.45;58.59;102152.47;6196959;28;20248;-57
2021/03/24 07:11:58;;;;;;;61.43;41.00;;;;;;;9.01;59.70;102169.88;6195911;28;20229;-59
2021/03/24 07:15:30;;;;;;;58.10;45.07;;;;;;;8.89;59.93;102172.25;6188245;28;20265;-58
2021/03/24 07:19:15;;;;;;;56.17;43.17;;;;;;;9.19;58.76;102169.34;6191897;28;20232;-57
2021/03/24 07:22:48;;;;;;;60.13;43.13;;;;;;;9.29;58.57;102178.22;6197235;28;20238;-57
2021/03/24 07:26:20;;;;;;;57.47;43.60;;;;;;;8.90;59.21;102187.88;6195037;28;20221;-56
2021/03/24 07:29:55;;;;;;;53.13;39.70;;;;;;;8.20;61.07;102175.13;6197237;28;20316;-59
2021/03/24 07:33:23;;;;;;;56.57;43.90;;;;;;;8.36;61.37;102188.44;6197380;28;20823;-57
2021/03/24 07:37:09;;;;;;;49.93;41.37;;;;;;;8.79;59.98;102179.88;6194758;28;20641;-57
2021/03/24 07:40:44;;;;;;;55.53;41.60;;;;;;;8.62;59.90;102189.03;6164663;28;20233;-57
2021/03/24 07:44:22;;;;;;;47.00;38.53;;;;;;;8.45;60.37;102188.66;6186762;28;20229;-58
2021/03/24 07:47:53;;;;;;;51.50;42.27;;;;;;;8.31;61.00;102196.13;6190610;28;20229;-57
2021/03/24 07:51:24;;;;;;;49.10;38.10;;;;;;;8.82;59.50;102189.44;6192111;28;20233;-56
2021/03/24 07:54:53;;;;;;;48.87;40.53;;;;;;;8.79;59.85;102195.44;6199875;28;20240;-57
2021/03/24 07:59:04;;;;;;;54.07;40.83;;;;;;;8.59;60.68;102186.38;6201042;28;20619;-60
2021/03/24 08:02:39;;;;;;;54.80;41.50;;;;;;;8.19;62.15;102194.13;6118025;28;20777;-57
2021/03/24 08:06:14;;;;;;;60.23;42.90;;;;;;;9.43;58.25;102185.38;6200309;28;20224;-58
2021/03/24 08:09:46;;;;;;;56.73;43.83;;;;;;;9.64;57.35;102190.09;6195053;28;20225;-60
2021/03/24 08:13:30;;;;;;;60.07;46.30;;;;;;;9.18;59.77;102191.00;6198984;28;20237;-58
2021/03/24 08:17:00;;;;;;;61.83;47.63;;;;;;;9.16;60.92;102185.75;6202031;28;20233;-57
2021/03/24 08:20:45;;;;;;;62.53;46.43;;;;;;;9.07;60.39;102191.69;6196763;28;20312;-56
2021/03/24 08:24:28;;;;;;;63.90;47.73;;;;;;;9.14;61.29;102186.59;6196530;28;20228;-54
2021/03/24 08:27:58;;;;;;;64.17;50.10;;;;;;;9.43;59.96;102192.31;6194256;28;21989;-57
2021/03/24 08:32:19;;;;;;;63.57;47.73;;;;;;;9.38;61.70;102186.16;6195177;28;20229;-56
2021/03/24 08:36:01;;;;;;;60.57;45.87;;;;;;;9.27;62.28;102193.78;6195157;28;20233;-56
2021/03/24 08:39:44;;;;;;;66.13;48.67;;;;;;;9.34;61.58;102194.75;6196778;28;20314;-52
2021/03/24 08:43:44;;;;;;;62.20;48.83;;;;;;;9.72;61.27;102186.75;6195285;28;20232;-55
2021/03/24 08:47:14;;;;;;;66.17;50.47;;;;;;;9.74;59.86;102185.91;6172878;28;20229;-50
2021/03/24 08:50:40;;;;;;;66.60;49.50;;;;;;;9.34;60.81;102195.63;6198105;28;20233;-56
2021/03/24 08:54:48;;;;;;;66.57;48.70;;;;;;;10.05;59.80;102187.25;6196802;28;20225;-55
2021/03/24 08:58:22;;;;;;;70.30;49.13;;;;;;;9.48;60.73;102181.97;6193175;28;20510;-56
2021/03/24 09:01:58;;;;;;;70.43;49.17;;;;;;;9.73;59.70;102184.19;6205193;28;20245;-57
2021/03/24 09:05:27;;;;;;;67.37;49.77;;;;;;;9.93;59.40;102176.66;6198785;28;20289;-56
2021/03/24 09:08:55;;;;;;;71.80;50.37;;;;;;;9.71;59.99;102174.56;6193272;28;20472;-56
2021/03/24 09:12:23;;;;;;;61.50;49.97;;;;;;;10.84;56.92;102170.09;6201022;28;20244;-58
2021/03/24 09:15:57;;;;;;;63.73;50.20;;;;;;;11.30;55.26;102173.19;6199521;28;20236;-54
2021/03/24 09:19:53;;;;;;;63.80;49.13;;;;;;;11.18;55.16;102160.88;6200438;28;20236;-57
2021/03/24 09:23:58;;;;;;;63.80;46.40;;;;;;;11.30;54.98;102154.03;6173864;28;20224;-57
2021/03/24 09:27:32;;;;;;;66.80;48.13;;;;;;;11.13;55.60;102161.72;6196837;28;20316;-59
2021/03/24 09:31:27;;;;;;;62.77;46.27;;;;;;;11.75;53.74;102163.16;6193273;28;20258;-60
2021/03/24 09:35:19;;;;;;;54.73;45.43;;;;;;;11.57;53.61;102159.53;6195747;28;20595;-54
2021/03/24 09:38:42;;;;;;;54.87;43.90;;;;;;;12.23;52.04;102153.03;6194923;28;20290;-55
2021/03/24 09:42:08;;;;;;;58.07;46.23;;;;;;;13.02;50.33;102155.06;6199492;28;20269;-55
2021/03/24 09:45:34;;;;;;;53.97;45.97;;;;;;;12.57;51.05;102157.53;6194837;28;20324;-57
2021/03/24 09:48:59;;;;;;;56.27;44.83;;;;;;;12.23;51.31;102153.03;6198526;28;20222;-57
2021/03/24 09:52:28;;;;;;;55.33;44.37;;;;;;;10.73;55.11;102156.94;6203524;28;20282;-58
2021/03/24 09:56:01;;;;;;;59.93;47.80;;;;;;;11.70;53.12;102146.56;6189789;28;20615;-55
2021/03/24 09:59:27;;;;;;;57.77;45.97;;;;;;;11.83;52.67;102156.22;6200657;28;20233;-57
2021/03/24 10:02:54;;;;;;;60.40;46.60;;;;;;;12.15;51.47;102142.53;6196371;28;20226;-56
2021/03/24 10:06:24;;;;;;;53.83;43.50;;;;;;;12.02;50.70;102136.38;6197188;28;20233;-58
2021/03/24 10:09:55;;;;;;;56.83;43.23;;;;;;;12.16;51.25;102147.78;6200774;28;20342;-55
2021/03/24 10:13:21;;;;;;;59.40;45.90;;;;;;;11.97;51.91;102144.16;6192834;28;20240;-60
2021/03/24 10:16:46;;;;;;;52.10;42.30;;;;;;;11.68;52.23;102145.69;6198944;28;20236;-56
2021/03/24 10:20:16;;;;;;;59.37;45.83;;;;;;;11.41;53.94;102136.75;6200987;28;20249;-57
2021/03/24 10:23:44;;;;;;;58.10;43.30;;;;;;;11.66;52.92;102132.63;6200577;28;20343;-56
2021/03/24 10:27:07;;;;;;;47.07;38.33;;;;;;;12.35;51.12;102135.69;6197916;28;20241;-56
2021/03/24 10:30:34;;;;;;;53.93;41.13;;;;;;;12.47;50.55;102129.63;6198075;28;20229;-59
2021/03/24 10:33:58;;;;;;;51.10;41.03;;;;;;;12.18;51.02;102126.88;6199942;28;20233;-55
2021/03/24 10:37:30;;;;;;;46.40;41.13;;;;;;;12.01;51.30;102127.66;6182752;28;20249;-56
2021/03/24 10:41:05;;;;;;;48.10;42.43;;;;;;;12.63;50.21;102119.25;6200854;28;20233;-57
2021/03/24 10:44:40;;;;;;;57.40;44.60;;;;;;;13.15;49.26;102114.13;6188505;28;21936;-57
2021/03/24 10:48:11;;;;;;;57.53;47.80;;;;;;;11.63;52.90;102120.44;6195069;28;20240;-56
2021/03/24 10:51:40;;;;;;;54.87;44.97;;;;;;;12.03;51.52;102117.22;6198949;28;20230;-55
2021/03/24 10:55:06;;;;;;;52.20;45.70;;;;;;;11.90;51.70;102115.41;6199883;28;20331;-56
2021/03/24 10:58:56;;;;;;;53.57;44.70;;;;;;;12.27;51.16;102126.94;6195774;28;22043;-57
2021/03/24 11:02:29;;;;;;;58.67;48.50;;;;;;;11.80;51.77;102110.09;6184594;28;20238;-57
2021/03/24 11:05:54;;;;;;;55.10;48.37;;;;;;;12.83;49.97;102112.31;6195866;28;20232;-57
2021/03/24 11:09:19;;;;;;;60.13;46.97;;;;;;;12.31;50.77;102119.97;6198371;28;20236;-58
2021/03/24 11:12:45;;;;;;;60.90;46.87;;;;;;;11.34;51.76;102115.00;6196174;28;20233;-57
2021/03/24 11:16:10;;;;;;;53.43;41.00;;;;;;;12.13;49.53;102113.78;6201793;28;22116;-53
2021/03/24 11:19:34;;;;;;;39.87;35.50;;;;;;;15.21;39.80;102092.47;6196908;28;20808;-58
2021/03/24 11:22:58;;;;;;;39.87;33.50;;;;;;;14.49;40.58;102100.78;6189422;28;20233;-56
2021/03/24 11:26:44;;;;;;;36.53;31.80;;;;;;;14.70;40.94;102092.84;6200383;28;20233;-54
2021/03/24 11:30:22;;;;;;;41.63;37.07;;;;;;;16.75;37.10;102106.59;6183701;28;20229;-57
2021/03/24 11:33:48;;;;;;;39.73;34.63;;;;;;;17.30;36.71;102094.34;6194117;28;20308;-56
2021/03/24 11:37:28;;;;;;;38.40;33.92;;;;;;;18.51;33.69;102083.22;6197960;28;20233;-55
2021/03/24 11:41:01;;;;;;;42.63;35.92;;;;;;;16.99;36.31;102078.19;6201492;28;20237;-59
2021/03/24 11:44:23;;;;;;;42.00;37.57;;;;;;;14.85;40.59;102080.50;6193010;28;20368;-56
2021/03/24 11:48:00;;;;;;;40.87;34.83;;;;;;;14.33;41.76;102086.91;6185358;28;20346;-56
2021/03/24 11:51:33;;;;;;;39.83;34.43;;;;;;;19.04;32.84;102064.47;6181533;28;20309;-52
2021/03/24 11:55:03;;;;;;;39.63;34.25;;;;;;;19.98;30.50;102057.56;6195891;28;21816;-57
2021/03/24 11:58:37;;;;;;;37.95;34.05;;;;;;;21.89;28.01;102051.38;6196301;28;20247;-56
2021/03/24 12:02:07;;;;;;;37.17;32.90;;;;;;;24.36;24.98;102039.25;6192832;28;20308;-54
2021/03/24 12:05:32;;;;;;;37.40;33.40;;;;;;;26.03;22.36;102047.69;6191341;28;20651;-54
2021/03/24 12:08:56;;;;;;;37.13;33.20;;;;;;;22.40;27.01;102036.19;6196931;28;20233;-56
2021/03/24 12:12:21;;;;;;;36.22;32.45;;;;;;;19.05;31.49;102043.28;6192551;28;20565;-55
2021/03/24 12:15:43;;;;;;;41.90;35.78;;;;;;;16.44;36.82;102048.25;6193600;28;20241;-59
2021/03/24 12:19:03;;;;;;;40.42;36.15;;;;;;;16.33;37.67;102038.78;6200932;28;20233;-59
2021/03/24 12:22:29;;;;;;;42.90;38.42;;;;;;;15.46;39.74;102027.50;6174482;28;20346;-57
2021/03/24 12:25:52;;;;;;;40.80;36.40;;;;;;;18.15;34.54;102019.00;6195214;28;20232;-57
2021/03/24 12:29:20;;;;;;;38.80;33.03;;;;;;;23.82;26.29;101993.03;6196399;28;20232;-58
2021/03/24 12:32:41;;;;;;;39.63;35.40;;;;;;;20.72;29.28;102007.69;6196904;28;20225;-60
2021/03/24 12:36:09;;;;;;;42.25;36.88;;;;;;;17.82;34.86;102003.81;6206845;28;20327;-60
2021/03/24 12:39:34;;;;;;;41.53;36.92;;;;;;;19.86;32.18;102000.63;6201899;28;20231;-58
2021/03/24 12:43:07;;;;;;;46.92;39.22;;;;;;;21.13;28.82;101986.94;6202397;28;20232;-57
2021/03/24 12:46:27;;;;;;;39.83;35.47;;;;;;;19.52;33.33;101995.41;6201553;28;20233;-56
2021/03/24 12:49:49;;;;;;;45.25;38.13;;;;;;;18.97;33.05;101986.31;6200917;28;20257;-60
2021/03/24 12:53:20;;;;;;;43.45;38.85;;;;;;;19.72;32.51;101978.16;6200005;28;20230;-58
2021/03/24 12:57:07;;;;;;;41.05;36.80;;;;;;;18.78;32.87;101965.63;6195453;28;20236;-58
2021/03/24 13:00:40;;;;;;;43.58;38.63;;;;;;;18.99;32.67;101964.25;6193724;28;20348;-61
2021/03/24 13:04:46;;;;;;;44.70;38.47;;;;;;;20.07;31.25;101953.31;6195952;28;20229;-58
2021/03/24 13:08:17;;;;;;;42.28;36.53;;;;;;;17.03;37.22;101964.94;6192900;28;20229;-56
2021/03/24 13:11:48;;;;;;;42.70;36.90;;;;;;;19.84;32.46;101961.94;6191851;28;20502;-57
2021/03/24 13:15:17;;;;;;;40.90;36.63;;;;;;;19.92;30.91;101957.28;6193964;28;20303;-57
2021/03/24 13:18:43;;;;;;;41.72;37.20;;;;;;;21.42;28.96;101948.81;6190225;28;20233;-58
2021/03/24 13:22:09;;;;;;;43.58;39.03;;;;;;;19.55;31.36;101947.75;6187709;28;20237;-58
2021/03/24 13:25:38;;;;;;;44.70;39.70;;;;;;;19.36;32.77;101943.91;6211491;28;20237;-58
2021/03/24 13:29:05;;;;;;;51.45;41.88;;;;;;;20.77;30.43;101944.03;6204304;28;20226;-56
2021/03/24 13:32:41;;;;;;;45.50;40.78;;;;;;;19.48;32.21;101944.44;6212089;28;20229;-57
2021/03/24 13:36:07;;;;;;;45.88;41.08;;;;;;;17.82;35.16;101940.59;6206591;28;20766;-58
2021/03/24 13:39:42;;;;;;;48.75;39.58;;;;;;;20.69;29.94;101924.91;6185224;28;20607;-58
2021/03/24 13:43:09;;;;;;;47.60;39.35;;;;;;;17.14;35.32;101943.72;6201681;28;20238;-55
2021/03/24 13:46:35;;;;;;;45.45;40.53;;;;;;;18.87;32.92;101932.91;6199175;28;20233;-55
2021/03/24 13:50:02;;;;;;;41.05;36.67;;;;;;;20.69;30.09;101916.97;6193545;28;20237;-59
2021/03/24 13:53:39;;;;;;;47.53;42.38;;;;;;;16.97;36.41;101925.59;6196616;28;20814;-57
2021/03/24 13:57:14;;;;;;;48.42;42.17;;;;;;;16.37;37.97;101928.34;6199480;28;20225;-54
2021/03/24 14:00:39;;;;;;;45.53;40.70;;;;;;;20.50;30.22;101906.97;6201462;28;20431;-55
2021/03/24 14:04:05;;;;;;;46.40;41.40;;;;;;;19.53;32.19;101906.47;6195630;28;20237;-58
2021/03/24 14:07:35;;;;;;;47.90;40.35;;;;;;;18.54;33.91;101909.09;6200804;28;20518;-58
2021/03/24 14:11:16;;;;;;;46.75;39.10;;;;;;;16.70;37.04;101909.34;6198610;28;20232;-59
2021/03/24 14:14:57;;;;;;;49.33;42.55;;;;;;;18.06;34.56;101896.16;6204272;28;20256;-59
2021/03/24 14:18:23;;;;;;;43.15;38.50;;;;;;;17.30;35.47;101912.69;6206424;28;20233;-57
2021/03/24 14:21:55;;;;;;;47.80;41.78;;;;;;;15.98;38.56;101913.13;6207403;28;20221;-59
2021/03/24 14:25:22;;;;;;;45.30;39.30;;;;;;;15.43;39.53;101904.19;6192455;28;20260;-57
2021/03/24 14:28:52;;;;;;;45.30;39.93;;;;;;;16.25;37.57;101901.34;6207774;28;20229;-57
2021/03/24 14:32:21;;;;;;;46.80;41.70;;;;;;;17.16;36.27;101901.53;6208596;28;20228;-59
2021/03/24 14:35:53;;;;;;;41.37;36.70;;;;;;;17.39;35.55;101890.56;6211191;28;20233;-54
2021/03/24 14:39:27;;;;;;;46.47;41.17;;;;;;;16.44;37.13;101890.53;6204514;28;20582;-56
2021/03/24 14:42:52;;;;;;;46.07;40.10;;;;;;;15.82;38.39;101882.69;6201295;28;20229;-55
2021/03/24 14:46:22;;;;;;;44.77;39.83;;;;;;;17.07;36.27;101879.78;6209733;28;20229;-54
2021/03/24 14:50:02;;;;;;;45.30;40.30;;;;;;;17.27;36.33;101873.25;6206094;28;20248;-59
2021/03/24 14:53:31;;;;;;;43.83;38.70;;;;;;;17.18;37.00;101884.00;6208743;28;20241;-57
2021/03/24 14:57:09;;;;;;;49.03;39.50;;;;;;;16.19;38.02;101877.78;6203841;28;20232;-58
2021/03/24 15:00:34;;;;;;;41.70;37.27;;;;;;;17.43;37.03;101863.31;6205462;28;20233;-55
2021/03/24 15:04:09;;;;;;;44.17;37.93;;;;;;;16.16;38.42;101869.09;6202447;28;20240;-57
2021/03/24 15:07:36;;;;;;;44.77;39.67;;;;;;;15.66;39.50;101858.38;6192918;28;20221;-57
2021/03/24 15:11:07;;;;;;;45.77;39.57;;;;;;;15.94;38.61;101859.75;6198392;28;20237;-56
2021/03/24 15:14:36;;;;;;;45.63;40.70;;;;;;;15.77;39.06;101851.25;6201681;28;20229;-59
2021/03/24 15:18:07;;;;;;;41.77;36.80;;;;;;;15.55;38.62;101851.53;6203998;28;20235;-56
2021/03/24 15:21:36;;;;;;;42.40;34.90;;;;;;;15.81;37.97;101846.84;6197126;28;20233;-56
2021/03/24 15:25:06;;;;;;;45.20;38.07;;;;;;;16.21;36.80;101841.84;6206422;28;20232;-57
2021/03/24 15:28:41;;;;;;;45.97;40.43;;;;;;;16.11;37.27;101856.88;6202589;28;20308;-54
2021/03/24 15:32:13;;;;;;;43.90;38.40;;;;;;;16.52;36.74;101843.94;6202548;28;20225;-58
2021/03/24 15:35:51;;;;;;;44.23;37.63;;;;;;;15.88;38.37;101846.72;6200222;28;20361;-56
2021/03/24 15:39:22;;;;;;;49.50;40.10;;;;;;;16.29;37.55;101841.72;6203562;28;20232;-57
2021/03/24 15:42:53;;;;;;;43.77;37.53;;;;;;;16.71;35.76;101842.72;6206102;28;20606;-59
2021/03/24 15:46:18;;;;;;;43.27;37.43;;;;;;;15.93;38.16;101826.47;6205867;28;20589;-57
2021/03/24 15:50:07;;;;;;;43.50;37.20;;;;;;;15.30;39.56;101835.22;6207092;28;20599;-59
2021/03/24 15:53:43;;;;;;;43.70;38.57;;;;;;;15.61;39.53;101839.22;6197575;28;20249;-53
2021/03/24 15:57:17;;;;;;;47.87;38.73;;;;;;;15.76;39.45;101836.41;6206376;28;20241;-57
2021/03/24 16:00:49;;;;;;;49.60;39.13;;;;;;;15.79;39.11;101849.47;6205126;28;20236;-59
2021/03/24 16:04:54;;;;;;;46.47;38.80;;;;;;;15.89;40.11;101845.81;6201234;28;20229;-56